Eudora, Kansas
Current Conditions -  °F | °C
As of 1:59 AM on Saturday 25 Oct 2014 (Local Time) from KLWC Reporting Station
Moderate Fog Moderate Fog  
Wind Chill: 53°   Ceiling: 400
Heat Index: 53°   Visibility: 0.25mi
Dew Point: 53°   Wind: 0mph
Humidity: 100%   Direction: NA
Pressure: 30.01"   Gusts: NA
Location:  38.94°N, 95.1°W
Report Text: KLWC 250659Z AUTO 00000KT 1/4SM FG VV004 12/12 A3001 RMK AO2 T01170117
Loading
Personal Weather Stations






























Interactive Weather Map
Tropical Storm Tracking
New forecast layout! Learn more

10-Day Weather Forecast

Advertisements
Track Severe Weather on mobile